sensor_id;sensor_type;location;lat;lon;timestamp;pressure;altitude;pressure_sealevel;temperature;humidity
64336;BME280;50672;53.362;-6.240;2022-09-17T00:01:04;102671.78;;;11.28;56.47
64336;BME280;50672;53.362;-6.240;2022-09-17T00:03:31;102675.41;;;11.29;56.62
64336;BME280;50672;53.362;-6.240;2022-09-17T00:06:05;102673.53;;;11.29;56.93
64336;BME280;50672;53.362;-6.240;2022-09-17T00:08:34;102668.50;;;11.25;56.93
64336;BME280;50672;53.362;-6.240;2022-09-17T00:13:34;102671.78;;;11.07;57.15
64336;BME280;50672;53.362;-6.240;2022-09-17T00:16:01;102676.03;;;11.00;57.17
64336;BME280;50672;53.362;-6.240;2022-09-17T00:18:27;102669.25;;;10.94;57.29
64336;BME280;50672;53.362;-6.240;2022-09-17T00:20:54;102677.94;;;10.88;57.32
64336;BME280;50672;53.362;-6.240;2022-09-17T00:23:21;102670.91;;;10.86;57.63
64336;BME280;50672;53.362;-6.240;2022-09-17T00:25:48;102674.75;;;10.83;57.61
64336;BME280;50672;53.362;-6.240;2022-09-17T00:28:15;102662.53;;;10.77;57.88
64336;BME280;50672;53.362;-6.240;2022-09-17T00:30:44;102664.88;;;10.71;58.10
64336;BME280;50672;53.362;-6.240;2022-09-17T00:33:13;102661.31;;;10.70;57.95
64336;BME280;50672;53.362;-6.240;2022-09-17T00:35:41;102677.75;;;10.69;58.13
64336;BME280;50672;53.362;-6.240;2022-09-17T00:38:07;102681.63;;;10.66;58.40
64336;BME280;50672;53.362;-6.240;2022-09-17T00:40:35;102676.41;;;10.63;58.19
64336;BME280;50672;53.362;-6.240;2022-09-17T00:43:02;102670.25;;;10.61;58.43
64336;BME280;50672;53.362;-6.240;2022-09-17T00:45:30;102662.34;;;10.58;58.70
64336;BME280;50672;53.362;-6.240;2022-09-17T00:48:00;102669.88;;;10.54;58.60
64336;BME280;50672;53.362;-6.240;2022-09-17T00:50:32;102664.72;;;10.51;59.01
64336;BME280;50672;53.362;-6.240;2022-09-17T00:53:18;102665.09;;;10.47;59.10
64336;BME280;50672;53.362;-6.240;2022-09-17T00:55:51;102660.91;;;10.42;59.06
64336;BME280;50672;53.362;-6.240;2022-09-17T00:58:21;102657.81;;;10.36;59.26
64336;BME280;50672;53.362;-6.240;2022-09-17T01:00:50;102654.31;;;10.34;59.41
64336;BME280;50672;53.362;-6.240;2022-09-17T01:03:16;102651.59;;;10.34;59.52
64336;BME280;50672;53.362;-6.240;2022-09-17T01:05:47;102661.53;;;10.35;59.57
64336;BME280;50672;53.362;-6.240;2022-09-17T01:17:35;102666.22;;;10.33;60.34
64336;BME280;50672;53.362;-6.240;2022-09-17T01:32:35;102676.09;;;10.34;60.66
64336;BME280;50672;53.362;-6.240;2022-09-17T01:34:52;102677.09;;;10.33;60.81
64336;BME280;50672;53.362;-6.240;2022-09-17T01:37:33;102670.91;;;10.31;60.73
64336;BME280;50672;53.362;-6.240;2022-09-17T01:40:26;102663.97;;;10.26;60.60
64336;BME280;50672;53.362;-6.240;2022-09-17T01:43:13;102671.28;;;10.26;60.90
64336;BME280;50672;53.362;-6.240;2022-09-17T01:48:29;102661.66;;;10.22;61.17
64336;BME280;50672;53.362;-6.240;2022-09-17T01:51:07;102671.78;;;10.20;61.17
64336;BME280;50672;53.362;-6.240;2022-09-17T01:53:55;102675.63;;;10.17;61.28
64336;BME280;50672;53.362;-6.240;2022-09-17T01:56:28;102674.16;;;10.13;61.33
64336;BME280;50672;53.362;-6.240;2022-09-17T01:59:05;102672.81;;;10.07;61.37
64336;BME280;50672;53.362;-6.240;2022-09-17T02:01:34;102665.97;;;10.02;61.48
64336;BME280;50672;53.362;-6.240;2022-09-17T02:04:13;102666.22;;;9.99;61.76
64336;BME280;50672;53.362;-6.240;2022-09-17T02:06:45;102670.19;;;9.95;61.75
64336;BME280;50672;53.362;-6.240;2022-09-17T02:09:16;102668.72;;;9.90;61.86
64336;BME280;50672;53.362;-6.240;2022-09-17T02:11:49;102671.41;;;9.90;61.84
64336;BME280;50672;53.362;-6.240;2022-09-17T02:14:21;102675.88;;;9.91;62.06
64336;BME280;50672;53.362;-6.240;2022-09-17T02:16:54;102671.19;;;9.94;62.17
64336;BME280;50672;53.362;-6.240;2022-09-17T02:19:27;102670.69;;;9.88;62.27
64336;BME280;50672;53.362;-6.240;2022-09-17T02:24:24;102667.22;;;9.75;62.37
64336;BME280;50672;53.362;-6.240;2022-09-17T02:29:32;102673.41;;;9.66;62.76
64336;BME280;50672;53.362;-6.240;2022-09-17T02:31:59;102673.75;;;9.61;62.84
64336;BME280;50672;53.362;-6.240;2022-09-17T02:34:27;102676.34;;;9.63;62.85
64336;BME280;50672;53.362;-6.240;2022-09-17T02:36:55;102674.41;;;9.65;62.92
64336;BME280;50672;53.362;-6.240;2022-09-17T02:39:24;102677.72;;;9.68;63.08
64336;BME280;50672;53.362;-6.240;2022-09-17T02:44:59;102683.28;;;9.67;63.35
64336;BME280;50672;53.362;-6.240;2022-09-17T02:47:51;102680.44;;;9.68;63.50
64336;BME280;50672;53.362;-6.240;2022-09-17T02:58:42;102664.25;;;9.55;63.75
64336;BME280;50672;53.362;-6.240;2022-09-17T03:01:23;102659.56;;;9.46;64.03
64336;BME280;50672;53.362;-6.240;2022-09-17T03:03:53;102665.56;;;9.38;63.99
64336;BME280;50672;53.362;-6.240;2022-09-17T03:06:21;102661.13;;;9.37;64.04
64336;BME280;50672;53.362;-6.240;2022-09-17T03:08:49;102668.53;;;9.35;64.13
64336;BME280;50672;53.362;-6.240;2022-09-17T03:11:15;102665.94;;;9.34;64.22
64336;BME280;50672;53.362;-6.240;2022-09-17T03:13:42;102663.97;;;9.36;64.50
64336;BME280;50672;53.362;-6.240;2022-09-17T03:16:09;102663.97;;;9.36;64.54
64336;BME280;50672;53.362;-6.240;2022-09-17T03:18:36;102665.81;;;9.35;64.58
64336;BME280;50672;53.362;-6.240;2022-09-17T03:21:04;102663.22;;;9.34;64.60
64336;BME280;50672;53.362;-6.240;2022-09-17T03:23:31;102665.94;;;9.34;64.81
64336;BME280;50672;53.362;-6.240;2022-09-17T03:25:59;102659.75;;;9.32;64.96
64336;BME280;50672;53.362;-6.240;2022-09-17T03:28:26;102669.00;;;9.29;64.93
64336;BME280;50672;53.362;-6.240;2022-09-17T03:30:52;102666.66;;;9.24;64.95
64336;BME280;50672;53.362;-6.240;2022-09-17T03:33:20;102673.31;;;9.20;65.24
64336;BME280;50672;53.362;-6.240;2022-09-17T03:35:47;102664.56;;;9.17;65.39
64336;BME280;50672;53.362;-6.240;2022-09-17T03:38:14;102660.34;;;9.13;65.35
64336;BME280;50672;53.362;-6.240;2022-09-17T03:40:41;102661.31;;;9.12;65.34
64336;BME280;50672;53.362;-6.240;2022-09-17T03:43:08;102656.00;;;9.10;65.48
64336;BME280;50672;53.362;-6.240;2022-09-17T03:45:35;102658.72;;;9.10;65.74
64336;BME280;50672;53.362;-6.240;2022-09-17T03:48:02;102657.94;;;9.08;65.76
64336;BME280;50672;53.362;-6.240;2022-09-17T03:50:30;102660.66;;;9.08;65.97
64336;BME280;50672;53.362;-6.240;2022-09-17T03:52:56;102657.94;;;9.08;65.94
64336;BME280;50672;53.362;-6.240;2022-09-17T03:55:23;102661.91;;;9.04;65.90
64336;BME280;50672;53.362;-6.240;2022-09-17T03:57:50;102658.44;;;9.02;66.03
64336;BME280;50672;53.362;-6.240;2022-09-17T04:00:17;102655.72;;;9.02;66.26
64336;BME280;50672;53.362;-6.240;2022-09-17T04:02:44;102654.22;;;8.98;66.38
64336;BME280;50672;53.362;-6.240;2022-09-17T04:05:11;102652.50;;;8.97;66.54
64336;BME280;50672;53.362;-6.240;2022-09-17T04:07:39;102649.25;;;8.92;66.67
64336;BME280;50672;53.362;-6.240;2022-09-17T04:10:07;102648.53;;;8.89;66.47
64336;BME280;50672;53.362;-6.240;2022-09-17T04:12:34;102653.22;;;8.87;66.75
64336;BME280;50672;53.362;-6.240;2022-09-17T04:15:03;102652.44;;;8.85;66.89
64336;BME280;50672;53.362;-6.240;2022-09-17T04:17:30;102651.72;;;8.83;66.96
64336;BME280;50672;53.362;-6.240;2022-09-17T04:19:57;102650.84;;;8.83;67.08
64336;BME280;50672;53.362;-6.240;2022-09-17T04:22:24;102656.25;;;8.83;67.24
64336;BME280;50672;53.362;-6.240;2022-09-17T04:24:51;102653.66;;;8.81;67.31
64336;BME280;50672;53.362;-6.240;2022-09-17T04:27:18;102662.78;;;8.80;67.25
64336;BME280;50672;53.362;-6.240;2022-09-17T04:29:45;102657.59;;;8.77;67.45
64336;BME280;50672;53.362;-6.240;2022-09-17T04:32:11;102668.47;;;8.77;67.70
64336;BME280;50672;53.362;-6.240;2022-09-17T04:34:38;102660.19;;;8.79;67.61
64336;BME280;50672;53.362;-6.240;2022-09-17T04:37:05;102662.78;;;8.80;67.75
64336;BME280;50672;53.362;-6.240;2022-09-17T04:39:31;102668.09;;;8.82;67.99
64336;BME280;50672;53.362;-6.240;2022-09-17T04:41:58;102670.72;;;8.83;67.96
64336;BME280;50672;53.362;-6.240;2022-09-17T04:44:25;102673.66;;;8.80;68.13
64336;BME280;50672;53.362;-6.240;2022-09-17T04:46:52;102667.59;;;8.77;68.00
64336;BME280;50672;53.362;-6.240;2022-09-17T04:49:19;102671.66;;;8.71;68.16
64336;BME280;50672;53.362;-6.240;2022-09-17T04:51:45;102679.16;;;8.67;68.27
64336;BME280;50672;53.362;-6.240;2022-09-17T04:54:12;102675.81;;;8.64;68.43
64336;BME280;50672;53.362;-6.240;2022-09-17T04:56:40;102674.19;;;8.61;68.37
64336;BME280;50672;53.362;-6.240;2022-09-17T04:59:06;102676.13;;;8.59;68.54
64336;BME280;50672;53.362;-6.240;2022-09-17T05:01:33;102675.53;;;8.55;68.74
64336;BME280;50672;53.362;-6.240;2022-09-17T05:04:00;102668.34;;;8.54;68.60
64336;BME280;50672;53.362;-6.240;2022-09-17T05:06:27;102664.66;;;8.55;68.71
64336;BME280;50672;53.362;-6.240;2022-09-17T05:08:53;102674.50;;;8.57;68.83
64336;BME280;50672;53.362;-6.240;2022-09-17T05:11:20;102677.47;;;8.53;68.97
64336;BME280;50672;53.362;-6.240;2022-09-17T05:13:47;102676.94;;;8.48;68.92
64336;BME280;50672;53.362;-6.240;2022-09-17T05:16:13;102673.59;;;8.45;69.06
64336;BME280;50672;53.362;-6.240;2022-09-17T05:18:40;102680.94;;;8.43;69.28
64336;BME280;50672;53.362;-6.240;2022-09-17T05:21:07;102679.44;;;8.38;69.08
64336;BME280;50672;53.362;-6.240;2022-09-17T05:23:35;102678.03;;;8.33;69.19
64336;BME280;50672;53.362;-6.240;2022-09-17T05:26:02;102676.44;;;8.30;69.32
64336;BME280;50672;53.362;-6.240;2022-09-17T05:28:29;102676.75;;;8.26;69.61
64336;BME280;50672;53.362;-6.240;2022-09-17T05:31:00;102679.72;;;8.23;69.55
64336;BME280;50672;53.362;-6.240;2022-09-17T05:33:28;102679.94;;;8.19;69.69
64336;BME280;50672;53.362;-6.240;2022-09-17T05:35:54;102679.28;;;8.16;69.59
64336;BME280;50672;53.362;-6.240;2022-09-17T05:38:21;102675.72;;;8.15;69.79
64336;BME280;50672;53.362;-6.240;2022-09-17T05:40:48;102678.66;;;8.12;69.99
64336;BME280;50672;53.362;-6.240;2022-09-17T05:43:15;102676.91;;;8.11;70.03
64336;BME280;50672;53.362;-6.240;2022-09-17T05:45:45;102683.44;;;8.09;70.08
64336;BME280;50672;53.362;-6.240;2022-09-17T05:48:13;102671.91;;;8.05;70.16
64336;BME280;50672;53.362;-6.240;2022-09-17T05:50:40;102674.75;;;8.03;70.30
64336;BME280;50672;53.362;-6.240;2022-09-17T05:53:10;102666.72;;;8.02;70.42
64336;BME280;50672;53.362;-6.240;2022-09-17T05:55:37;102677.69;;;8.00;70.46
64336;BME280;50672;53.362;-6.240;2022-09-17T05:58:10;102683.22;;;7.99;70.61
64336;BME280;50672;53.362;-6.240;2022-09-17T06:00:38;102690.28;;;8.01;70.61
64336;BME280;50672;53.362;-6.240;2022-09-17T06:03:08;102692.75;;;8.04;70.73
64336;BME280;50672;53.362;-6.240;2022-09-17T06:05:39;102686.91;;;8.11;70.82
64336;BME280;50672;53.362;-6.240;2022-09-17T06:08:05;102687.66;;;8.13;70.88
64336;BME280;50672;53.362;-6.240;2022-09-17T06:10:36;102692.41;;;8.22;70.92
64336;BME280;50672;53.362;-6.240;2022-09-17T06:13:04;102690.09;;;8.29;71.02
64336;BME280;50672;53.362;-6.240;2022-09-17T06:15:31;102687.94;;;8.34;71.05
64336;BME280;50672;53.362;-6.240;2022-09-17T06:17:57;102694.50;;;8.43;71.19
64336;BME280;50672;53.362;-6.240;2022-09-17T06:20:24;102693.44;;;8.45;71.20
64336;BME280;50672;53.362;-6.240;2022-09-17T06:22:55;102696.69;;;8.50;71.01
64336;BME280;50672;53.362;-6.240;2022-09-17T06:25:23;102695.72;;;8.51;71.19
64336;BME280;50672;53.362;-6.240;2022-09-17T06:27:50;102688.56;;;8.50;71.09
64336;BME280;50672;53.362;-6.240;2022-09-17T06:30:17;102677.69;;;8.50;71.21
64336;BME280;50672;53.362;-6.240;2022-09-17T06:32:44;102679.88;;;8.45;71.28
64336;BME280;50672;53.362;-6.240;2022-09-17T06:35:11;102682.69;;;8.44;71.40
64336;BME280;50672;53.362;-6.240;2022-09-17T06:37:38;102684.78;;;8.40;71.15
64336;BME280;50672;53.362;-6.240;2022-09-17T06:40:07;102688.47;;;8.39;71.17
64336;BME280;50672;53.362;-6.240;2022-09-17T06:42:34;102693.00;;;8.38;71.35
64336;BME280;50672;53.362;-6.240;2022-09-17T06:45:01;102695.81;;;8.37;71.24
64336;BME280;50672;53.362;-6.240;2022-09-17T06:47:34;102702.25;;;8.36;71.32
64336;BME280;50672;53.362;-6.240;2022-09-17T06:50:01;102701.25;;;8.37;71.31
64336;BME280;50672;53.362;-6.240;2022-09-17T06:52:28;102709.50;;;8.35;71.48
64336;BME280;50672;53.362;-6.240;2022-09-17T06:54:55;102704.84;;;8.37;71.37
64336;BME280;50672;53.362;-6.240;2022-09-17T06:57:23;102716.81;;;8.35;71.40
64336;BME280;50672;53.362;-6.240;2022-09-17T06:59:49;102708.78;;;8.33;71.42
64336;BME280;50672;53.362;-6.240;2022-09-17T07:02:17;102713.31;;;8.33;71.60
64336;BME280;50672;53.362;-6.240;2022-09-17T07:04:44;102715.94;;;8.34;71.62
64336;BME280;50672;53.362;-6.240;2022-09-17T07:07:11;102713.97;;;8.36;71.72
64336;BME280;50672;53.362;-6.240;2022-09-17T07:09:37;102714.81;;;8.37;71.61
64336;BME280;50672;53.362;-6.240;2022-09-17T07:12:07;102713.84;;;8.38;71.80
64336;BME280;50672;53.362;-6.240;2022-09-17T07:14:34;102706.47;;;8.40;71.87
64336;BME280;50672;53.362;-6.240;2022-09-17T07:17:01;102714.63;;;8.40;71.95
64336;BME280;50672;53.362;-6.240;2022-09-17T07:19:28;102711.69;;;8.43;71.96
64336;BME280;50672;53.362;-6.240;2022-09-17T07:21:55;102720.59;;;8.45;72.05
64336;BME280;50672;53.362;-6.240;2022-09-17T07:24:22;102707.91;;;8.46;72.08
64336;BME280;50672;53.362;-6.240;2022-09-17T07:26:49;102710.28;;;8.50;72.07
64336;BME280;50672;53.362;-6.240;2022-09-17T07:29:17;102716.34;;;8.54;72.18
64336;BME280;50672;53.362;-6.240;2022-09-17T07:31:44;102717.63;;;8.61;72.27
64336;BME280;50672;53.362;-6.240;2022-09-17T07:34:10;102716.06;;;8.70;72.30
64336;BME280;50672;53.362;-6.240;2022-09-17T07:36:37;102712.56;;;8.81;72.42
64336;BME280;50672;53.362;-6.240;2022-09-17T07:39:04;102721.38;;;8.96;72.45
64336;BME280;50672;53.362;-6.240;2022-09-17T07:41:31;102723.03;;;9.10;72.44
64336;BME280;50672;53.362;-6.240;2022-09-17T07:43:57;102721.84;;;9.25;72.41
64336;BME280;50672;53.362;-6.240;2022-09-17T07:46:24;102716.13;;;9.41;72.40
64336;BME280;50672;53.362;-6.240;2022-09-17T07:48:51;102724.06;;;9.55;72.21
64336;BME280;50672;53.362;-6.240;2022-09-17T07:51:23;102723.34;;;9.65;71.91
64336;BME280;50672;53.362;-6.240;2022-09-17T07:53:51;102718.88;;;9.75;71.95
64336;BME280;50672;53.362;-6.240;2022-09-17T07:56:19;102722.97;;;9.81;71.86
64336;BME280;50672;53.362;-6.240;2022-09-17T07:58:46;102717.66;;;9.90;71.75
64336;BME280;50672;53.362;-6.240;2022-09-17T08:01:13;102713.50;;;9.98;71.61
64336;BME280;50672;53.362;-6.240;2022-09-17T08:03:46;102721.41;;;10.01;71.64
64336;BME280;50672;53.362;-6.240;2022-09-17T08:06:15;102723.22;;;10.12;71.41
64336;BME280;50672;53.362;-6.240;2022-09-17T08:08:42;102725.09;;;10.22;71.19
64336;BME280;50672;53.362;-6.240;2022-09-17T08:11:11;102719.16;;;10.29;71.26
64336;BME280;50672;53.362;-6.240;2022-09-17T08:13:39;102718.56;;;10.36;70.99
64336;BME280;50672;53.362;-6.240;2022-09-17T08:16:08;102722.88;;;10.50;70.86
64336;BME280;50672;53.362;-6.240;2022-09-17T08:18:36;102729.03;;;10.64;70.68
64336;BME280;50672;53.362;-6.240;2022-09-17T08:21:04;102732.97;;;10.71;70.58
64336;BME280;50672;53.362;-6.240;2022-09-17T08:23:34;102728.00;;;10.87;70.62
64336;BME280;50672;53.362;-6.240;2022-09-17T08:26:01;102729.19;;;10.94;70.37
64336;BME280;50672;53.362;-6.240;2022-09-17T08:28:29;102728.44;;;11.04;69.96
64336;BME280;50672;53.362;-6.240;2022-09-17T08:31:06;102729.09;;;11.17;69.93
64336;BME280;50672;53.362;-6.240;2022-09-17T08:33:38;102726.94;;;11.32;69.92
64336;BME280;50672;53.362;-6.240;2022-09-17T08:36:07;102721.28;;;11.45;69.43
64336;BME280;50672;53.362;-6.240;2022-09-17T08:38:36;102730.66;;;11.52;69.49
64336;BME280;50672;53.362;-6.240;2022-09-17T08:46:48;102729.16;;;12.11;68.44
64336;BME280;50672;53.362;-6.240;2022-09-17T08:49:40;102740.84;;;12.23;68.43
64336;BME280;50672;53.362;-6.240;2022-09-17T09:03:48;102729.09;;;13.03;67.12
64336;BME280;50672;53.362;-6.240;2022-09-17T09:06:21;102730.53;;;13.16;66.39
64336;BME280;50672;53.362;-6.240;2022-09-17T09:08:55;102736.00;;;13.26;66.50
64336;BME280;50672;53.362;-6.240;2022-09-17T09:11:27;102732.16;;;13.39;66.17
64336;BME280;50672;53.362;-6.240;2022-09-17T09:14:12;102741.19;;;13.59;65.62
64336;BME280;50672;53.362;-6.240;2022-09-17T09:16:44;102728.22;;;13.71;65.53
64336;BME280;50672;53.362;-6.240;2022-09-17T09:19:31;102725.44;;;13.80;64.90
64336;BME280;50672;53.362;-6.240;2022-09-17T09:22:02;102732.31;;;13.94;64.47
64336;BME280;50672;53.362;-6.240;2022-09-17T09:25:02;102732.13;;;14.06;64.18
64336;BME280;50672;53.362;-6.240;2022-09-17T09:27:28;102732.34;;;14.22;63.86
64336;BME280;50672;53.362;-6.240;2022-09-17T09:30:05;102728.00;;;14.29;63.66
64336;BME280;50672;53.362;-6.240;2022-09-17T09:35:23;102728.69;;;14.59;62.64
64336;BME280;50672;53.362;-6.240;2022-09-17T09:40:43;102735.19;;;14.86;61.97
64336;BME280;50672;53.362;-6.240;2022-09-17T09:43:21;102733.16;;;15.06;61.49
64336;BME280;50672;53.362;-6.240;2022-09-17T09:46:25;102723.69;;;15.18;61.24
64336;BME280;50672;53.362;-6.240;2022-09-17T09:55:02;102724.03;;;15.42;60.07
64336;BME280;50672;53.362;-6.240;2022-09-17T09:57:44;102730.56;;;15.41;59.73
64336;BME280;50672;53.362;-6.240;2022-09-17T10:00:28;102725.50;;;15.98;59.76
64336;BME280;50672;53.362;-6.240;2022-09-17T10:05:37;102724.47;;;16.42;59.18
64336;BME280;50672;53.362;-6.240;2022-09-17T10:08:13;102713.31;;;16.01;58.27
64336;BME280;50672;53.362;-6.240;2022-09-17T10:10:55;102718.91;;;15.65;57.66
64336;BME280;50672;53.362;-6.240;2022-09-17T10:13:23;102724.97;;;15.50;57.26
64336;BME280;50672;53.362;-6.240;2022-09-17T10:15:50;102727.81;;;15.85;57.33
64336;BME280;50672;53.362;-6.240;2022-09-17T10:18:19;102728.56;;;15.95;56.73
64336;BME280;50672;53.362;-6.240;2022-09-17T10:20:56;102714.50;;;15.98;56.79
64336;BME280;50672;53.362;-6.240;2022-09-17T10:23:27;102726.25;;;16.51;56.54
64336;BME280;50672;53.362;-6.240;2022-09-17T10:25:54;102715.53;;;16.91;55.98
64336;BME280;50672;53.362;-6.240;2022-09-17T10:30:59;102724.41;;;16.68;55.36
64336;BME280;50672;53.362;-6.240;2022-09-17T10:33:33;102729.16;;;17.09;55.04
64336;BME280;50672;53.362;-6.240;2022-09-17T10:36:05;102735.03;;;17.31;54.26
64336;BME280;50672;53.362;-6.240;2022-09-17T10:38:37;102726.94;;;17.46;53.94
64336;BME280;50672;53.362;-6.240;2022-09-17T10:43:44;102716.25;;;18.32;52.80
64336;BME280;50672;53.362;-6.240;2022-09-17T10:46:15;102714.81;;;18.44;52.67
64336;BME280;50672;53.362;-6.240;2022-09-17T10:48:45;102723.78;;;17.98;52.31
64336;BME280;50672;53.362;-6.240;2022-09-17T10:51:21;102711.94;;;17.65;51.72
64336;BME280;50672;53.362;-6.240;2022-09-17T10:56:51;102705.94;;;17.61;51.19
64336;BME280;50672;53.362;-6.240;2022-09-17T10:59:36;102711.44;;;18.34;50.95
64336;BME280;50672;53.362;-6.240;2022-09-17T11:05:06;102716.31;;;18.07;50.12
64336;BME280;50672;53.362;-6.240;2022-09-17T11:10:44;102707.59;;;17.79;49.32
64336;BME280;50672;53.362;-6.240;2022-09-17T11:13:35;102706.78;;;17.62;49.07
64336;BME280;50672;53.362;-6.240;2022-09-17T11:21:49;102697.47;;;17.71;48.75
64336;BME280;50672;53.362;-6.240;2022-09-17T11:24:41;102695.09;;;17.51;48.67
64336;BME280;50672;53.362;-6.240;2022-09-17T11:30:18;102680.50;;;19.77;48.23
64336;BME280;50672;53.362;-6.240;2022-09-17T11:35:32;102673.53;;;22.19;46.86
64336;BME280;50672;53.362;-6.240;2022-09-17T11:38:35;102666.06;;;21.50;46.29
64336;BME280;50672;53.362;-6.240;2022-09-17T11:41:43;102675.28;;;20.12;45.61
64336;BME280;50672;53.362;-6.240;2022-09-17T11:44:53;102666.97;;;19.29;45.30
64336;BME280;50672;53.362;-6.240;2022-09-17T11:50:56;102688.84;;;18.93;45.06
64336;BME280;50672;53.362;-6.240;2022-09-17T11:54:37;102678.78;;;19.23;44.62
64336;BME280;50672;53.362;-6.240;2022-09-17T11:57:08;102676.16;;;19.45;44.75
64336;BME280;50672;53.362;-6.240;2022-09-17T11:59:48;102676.41;;;19.20;44.21
64336;BME280;50672;53.362;-6.240;2022-09-17T12:05:17;102659.66;;;18.75;44.00
64336;BME280;50672;53.362;-6.240;2022-09-17T12:13:42;102652.50;;;19.80;43.57
64336;BME280;50672;53.362;-6.240;2022-09-17T12:18:57;102640.97;;;19.92;42.99
64336;BME280;50672;53.362;-6.240;2022-09-17T12:22:05;102653.06;;;19.91;42.82
64336;BME280;50672;53.362;-6.240;2022-09-17T12:24:28;102648.69;;;21.34;42.72
64336;BME280;50672;53.362;-6.240;2022-09-17T12:27:08;102651.88;;;21.60;42.25
64336;BME280;50672;53.362;-6.240;2022-09-17T12:40:45;102629.13;;;25.23;38.65
64336;BME280;50672;53.362;-6.240;2022-09-17T12:49:26;102631.66;;;26.73;37.40
64336;BME280;50672;53.362;-6.240;2022-09-17T12:57:08;102615.66;;;28.27;34.96
64336;BME280;50672;53.362;-6.240;2022-09-17T12:59:49;102625.50;;;26.94;34.51
64336;BME280;50672;53.362;-6.240;2022-09-17T13:02:33;102620.84;;;26.16;34.21
64336;BME280;50672;53.362;-6.240;2022-09-17T13:05:26;102615.72;;;25.13;34.26
64336;BME280;50672;53.362;-6.240;2022-09-17T13:16:28;102605.81;;;22.76;34.37
64336;BME280;50672;53.362;-6.240;2022-09-17T13:19:04;102603.22;;;24.27;34.58
64336;BME280;50672;53.362;-6.240;2022-09-17T13:24:22;102597.44;;;28.42;33.65
64336;BME280;50672;53.362;-6.240;2022-09-17T13:26:53;102596.53;;;30.44;32.80
64336;BME280;50672;53.362;-6.240;2022-09-17T13:38:42;102563.09;;;33.06;28.95
64336;BME280;50672;53.362;-6.240;2022-09-17T13:42:22;102554.38;;;32.61;28.30
64336;BME280;50672;53.362;-6.240;2022-09-17T13:49:10;102565.84;;;30.70;27.66
64336;BME280;50672;53.362;-6.240;2022-09-17T13:52:35;102570.09;;;28.78;27.51
64336;BME280;50672;53.362;-6.240;2022-09-17T13:55:58;102556.53;;;27.71;27.58
64336;BME280;50672;53.362;-6.240;2022-09-17T14:09:34;102538.81;;;32.33;25.78
64336;BME280;50672;53.362;-6.240;2022-09-17T14:15:36;102556.34;;;35.31;24.42
64336;BME280;50672;53.362;-6.240;2022-09-17T14:22:55;102547.72;;;36.80;23.37
64336;BME280;50672;53.362;-6.240;2022-09-17T14:26:32;102549.00;;;37.85;22.49
64336;BME280;50672;53.362;-6.240;2022-09-17T14:30:22;102542.69;;;37.88;21.70
64336;BME280;50672;53.362;-6.240;2022-09-17T14:35:45;102523.84;;;32.12;22.03
64336;BME280;50672;53.362;-6.240;2022-09-17T14:39:20;102518.53;;;30.29;22.34
64336;BME280;50672;53.362;-6.240;2022-09-17T14:42:43;102520.31;;;28.85;22.64
64336;BME280;50672;53.362;-6.240;2022-09-17T14:46:46;102530.34;;;29.59;23.08
64336;BME280;50672;53.362;-6.240;2022-09-17T14:49:25;102513.03;;;31.67;23.17
64336;BME280;50672;53.362;-6.240;2022-09-17T14:51:54;102519.09;;;32.84;22.58
64336;BME280;50672;53.362;-6.240;2022-09-17T14:54:22;102510.81;;;34.39;22.38
64336;BME280;50672;53.362;-6.240;2022-09-17T14:56:54;102523.59;;;34.96;22.09
64336;BME280;50672;53.362;-6.240;2022-09-17T14:59:37;102518.19;;;34.99;21.96
64336;BME280;50672;53.362;-6.240;2022-09-17T15:02:39;102506.97;;;32.43;21.74
64336;BME280;50672;53.362;-6.240;2022-09-17T15:07:45;102496.63;;;31.54;21.89
64336;BME280;50672;53.362;-6.240;2022-09-17T15:10:20;102518.81;;;32.50;21.71
64336;BME280;50672;53.362;-6.240;2022-09-17T15:12:48;102493.75;;;33.60;21.82
64336;BME280;50672;53.362;-6.240;2022-09-17T15:15:19;102485.78;;;34.57;21.37
64336;BME280;50672;53.362;-6.240;2022-09-17T15:17:48;102483.56;;;34.14;21.43
64336;BME280;50672;53.362;-6.240;2022-09-17T15:20:20;102476.34;;;33.43;21.39
64336;BME280;50672;53.362;-6.240;2022-09-17T15:23:16;102489.41;;;34.23;21.09
64336;BME280;50672;53.362;-6.240;2022-09-17T15:25:47;102477.53;;;35.38;20.86
64336;BME280;50672;53.362;-6.240;2022-09-17T15:28:30;102496.69;;;35.47;20.42
64336;BME280;50672;53.362;-6.240;2022-09-17T15:30:58;102490.88;;;35.57;20.14
64336;BME280;50672;53.362;-6.240;2022-09-17T15:33:27;102501.56;;;34.92;20.08
64336;BME280;50672;53.362;-6.240;2022-09-17T15:36:11;102493.91;;;35.85;20.05
64336;BME280;50672;53.362;-6.240;2022-09-17T15:38:41;102484.56;;;36.55;19.79
64336;BME280;50672;53.362;-6.240;2022-09-17T15:43:46;102482.03;;;36.54;19.33
64336;BME280;50672;53.362;-6.240;2022-09-17T15:46:29;102495.88;;;36.22;19.23
64336;BME280;50672;53.362;-6.240;2022-09-17T15:48:58;102479.38;;;36.43;18.89
64336;BME280;50672;53.362;-6.240;2022-09-17T15:51:28;102474.84;;;37.59;18.82
64336;BME280;50672;53.362;-6.240;2022-09-17T15:54:03;102474.00;;;37.58;18.29
64336;BME280;50672;53.362;-6.240;2022-09-17T15:56:35;102461.59;;;37.54;18.11
64336;BME280;50672;53.362;-6.240;2022-09-17T15:59:19;102456.09;;;36.60;17.89
64336;BME280;50672;53.362;-6.240;2022-09-17T16:01:51;102459.31;;;32.05;18.69
64336;BME280;50672;53.362;-6.240;2022-09-17T16:04:19;102465.97;;;29.25;19.04
64336;BME280;50672;53.362;-6.240;2022-09-17T16:06:58;102450.97;;;27.26;19.71
64336;BME280;50672;53.362;-6.240;2022-09-17T16:12:01;102462.69;;;24.68;20.78
64336;BME280;50672;53.362;-6.240;2022-09-17T16:14:28;102463.59;;;24.04;21.49
64336;BME280;50672;53.362;-6.240;2022-09-17T16:16:55;102469.38;;;23.58;21.68
64336;BME280;50672;53.362;-6.240;2022-09-17T16:19:22;102474.69;;;22.94;22.45
64336;BME280;50672;53.362;-6.240;2022-09-17T16:21:48;102469.59;;;22.57;22.80
64336;BME280;50672;53.362;-6.240;2022-09-17T16:24:15;102469.56;;;22.24;23.53
64336;BME280;50672;53.362;-6.240;2022-09-17T16:26:42;102477.56;;;21.72;23.74
64336;BME280;50672;53.362;-6.240;2022-09-17T16:29:14;102480.69;;;21.20;24.59